KAUS/AUS METAR and TAF weather

Enter ICAO airport designator
Station Type Date Time Source
KAUS METAR 2020/09/18 23:53 UTC NOAA

KAUS 182353Z 03014KT 10SM FEW060 SCT200 29/16 A2999 RMK AO2 SLP147 T02890161 10311 20289 55003


Station Type Date Time Source
KAUS Decoded METAR 2020/09/18 23:53 UTC NOAA

AUSTIN-BERGSTROM INTERNATIONAL AIRPORT, TX, United States (KAUS) 30-11N 097-41W 172M
Sep 18, 2020 - 07:53 PM EDT / 2020.09.18 2353 UTC
Wind: from the NNE (030 degrees) at 16 MPH (14 KT):0
Visibility: 10 mile(s):0
Sky conditions: partly cloudy
Temperature: 84.0 F (28.9 C)
Dew Point: 61.0 F (16.1 C)
Relative Humidity: 45%
Pressure (altimeter): 29.99 in. Hg (1015 hPa)
Pressure tendency: 0.01 inches (0.3 hPa) lower than three hours ago
ob: KAUS 182353Z 03014KT 10SM FEW060 SCT200 29/16 A2999 RMK AO2 SLP147 T02890161 10311 20289 55003
cycle: 0

Station Type Date Time Source
KAUS TAF 2020/09/18 18:24 UTC NOAA

TAF KAUS 181720Z 1818/1924 03013KT P6SM SCT040 SCT150
FM190200 01005KT P6SM FEW150
FM191700 03012KT P6SM FEW250

Example: see airport list